createdAt,value
2019-02-24T00:00:26.679Z,8.10
2019-02-24T00:02:55.620Z,7.73
2019-02-24T00:05:24.255Z,6.57
2019-02-24T00:07:52.873Z,8.07
2019-02-24T00:10:21.877Z,7.93
2019-02-24T00:12:50.502Z,7.07
2019-02-24T00:15:19.186Z,9.47
2019-02-24T00:17:48.133Z,6.47
2019-02-24T00:20:16.792Z,9.87
2019-02-24T00:22:45.703Z,6.07
2019-02-24T00:25:14.338Z,7.23
2019-02-24T00:27:43.278Z,6.47
2019-02-24T00:32:50.816Z,7.17
2019-02-24T00:37:58.004Z,6.67
2019-02-24T00:40:26.674Z,7.27
2019-02-24T00:42:55.347Z,7.67
2019-02-24T00:45:23.981Z,8.13
2019-02-24T00:47:52.596Z,6.20
2019-02-24T00:53:00.119Z,6.73
2019-02-24T00:55:30.633Z,6.80
2019-02-24T00:57:57.732Z,7.07
2019-02-24T01:00:26.360Z,6.73
2019-02-24T01:02:54.969Z,9.70
2019-02-24T01:05:23.610Z,6.70
2019-02-24T01:07:52.234Z,10.20
2019-02-24T01:12:59.771Z,23.00
2019-02-24T01:15:28.402Z,16.03
2019-02-24T01:17:57.020Z,13.60
2019-02-24T01:20:25.654Z,8.97
2019-02-24T01:22:54.294Z,8.80
2019-02-24T01:28:01.849Z,6.07
2019-02-24T01:30:30.493Z,8.17
2019-02-24T01:32:59.439Z,6.20
2019-02-24T01:35:28.433Z,6.37
2019-02-24T01:37:57.051Z,7.27
2019-02-24T01:40:25.705Z,5.70
2019-02-24T01:42:54.580Z,9.37
2019-02-24T01:45:23.238Z,6.30
2019-02-24T01:47:52.151Z,7.00
2019-02-24T01:50:20.778Z,7.83
2019-02-24T01:52:49.400Z,6.27
2019-02-24T01:55:18.038Z,6.10
2019-02-24T01:57:46.664Z,6.57
2019-02-24T02:00:15.327Z,5.93
2019-02-24T02:02:43.932Z,5.93
2019-02-24T02:05:12.554Z,6.43
2019-02-24T02:07:41.518Z,5.90
2019-02-24T02:10:10.154Z,7.93
2019-02-24T02:12:39.095Z,5.57
2019-02-24T02:15:07.730Z,7.00
2019-02-24T02:17:36.345Z,7.17
2019-02-24T02:20:04.972Z,5.97
2019-02-24T02:22:33.581Z,6.70
2019-02-24T02:25:02.241Z,5.13
2019-02-24T02:27:30.855Z,6.10
2019-02-24T02:29:59.478Z,6.37
2019-02-24T02:32:28.101Z,7.20
2019-02-24T02:34:56.728Z,7.20
2019-02-24T02:37:25.347Z,6.80
2019-02-24T02:39:53.967Z,5.70
2019-02-24T02:42:22.579Z,8.47
2019-02-24T02:44:51.581Z,7.23
2019-02-24T02:47:20.202Z,5.17
2019-02-24T02:49:49.145Z,6.67
2019-02-24T02:52:17.779Z,6.07
2019-02-24T02:54:46.681Z,8.83
2019-02-24T02:57:15.318Z,5.87
2019-02-24T02:59:43.904Z,5.87
2019-02-24T03:02:12.532Z,5.83
2019-02-24T03:04:41.448Z,7.07
2019-02-24T03:07:10.450Z,7.20
2019-02-24T03:09:39.067Z,6.77
2019-02-24T03:14:46.578Z,8.07
2019-02-24T03:17:15.211Z,6.00
2019-02-24T03:19:43.832Z,5.97
2019-02-24T03:22:12.465Z,7.10
2019-02-24T03:24:41.078Z,5.20
2019-02-24T03:27:09.710Z,7.70
2019-02-24T03:29:38.334Z,6.47
2019-02-24T03:34:45.566Z,4.43
2019-02-24T03:37:14.199Z,6.40
2019-02-24T03:39:42.801Z,6.90
2019-02-24T03:42:11.775Z,5.97
2019-02-24T03:44:40.769Z,6.97
2019-02-24T03:47:09.770Z,6.20
2019-02-24T03:49:38.377Z,6.23
2019-02-24T03:52:07.010Z,6.20
2019-02-24T03:54:35.622Z,7.03
2019-02-24T03:59:42.814Z,5.57
2019-02-24T04:02:11.454Z,8.97
2019-02-24T04:04:40.068Z,6.90
2019-02-24T04:07:08.702Z,6.23
2019-02-24T04:09:37.297Z,6.40
2019-02-24T04:14:44.470Z,5.80
2019-02-24T04:17:13.095Z,7.97
2019-02-24T04:19:41.703Z,7.87
2019-02-24T04:22:10.328Z,7.70
2019-02-24T04:24:38.962Z,7.03
2019-02-24T04:29:46.114Z,9.27
2019-02-24T04:32:14.749Z,5.73
2019-02-24T04:34:43.359Z,7.20
2019-02-24T04:37:12.319Z,7.83
2019-02-24T04:39:40.947Z,5.63
2019-02-24T04:42:09.569Z,7.43
2019-02-24T04:44:38.187Z,7.83
2019-02-24T04:49:45.979Z,5.93
2019-02-24T04:52:14.976Z,9.17
2019-02-24T04:54:43.580Z,8.87
2019-02-24T04:57:12.535Z,10.53
2019-02-24T04:59:41.454Z,12.03
2019-02-24T05:02:10.429Z,15.13
2019-02-24T05:04:39.040Z,12.67
2019-02-24T05:09:46.533Z,9.53
2019-02-24T05:12:15.171Z,10.93
2019-02-24T05:14:43.781Z,11.47
2019-02-24T05:17:12.759Z,11.53
2019-02-24T05:19:41.756Z,10.80
2019-02-24T05:22:10.388Z,8.27
2019-02-24T05:24:39.007Z,8.57
2019-02-24T05:27:08.018Z,8.47
2019-02-24T05:29:45.430Z,11.17
2019-02-24T05:34:44.217Z,10.03
2019-02-24T05:37:12.864Z,10.47
2019-02-24T05:39:41.470Z,8.53
2019-02-24T05:42:10.460Z,10.27
2019-02-24T05:44:39.096Z,8.60
2019-02-24T05:49:46.646Z,9.10
2019-02-24T05:52:15.294Z,7.83
2019-02-24T05:54:43.906Z,7.70
2019-02-24T05:57:12.546Z,8.57
2019-02-24T05:59:41.163Z,8.27
2019-02-24T06:02:09.821Z,9.43
2019-02-24T06:04:38.426Z,8.57
2019-02-24T06:09:45.871Z,10.83
2019-02-24T06:12:14.507Z,8.60
2019-02-24T06:14:43.135Z,9.87
2019-02-24T06:17:11.824Z,10.03
2019-02-24T06:19:40.443Z,11.07
2019-02-24T06:22:09.362Z,9.47
2019-02-24T06:24:37.970Z,9.03
2019-02-24T06:29:45.126Z,12.87
2019-02-24T06:32:13.762Z,9.13
2019-02-24T06:34:42.385Z,9.17
2019-02-24T06:37:11.017Z,10.17
2019-02-24T06:39:39.677Z,8.33
2019-02-24T06:42:08.668Z,14.47
2019-02-24T06:44:37.296Z,11.00
2019-02-24T06:49:44.533Z,9.80
2019-02-24T06:52:13.166Z,8.93
2019-02-24T06:54:41.876Z,9.33
2019-02-24T06:57:10.506Z,9.50
2019-02-24T06:59:39.128Z,8.67
2019-02-24T07:04:46.295Z,10.13
2019-02-24T07:07:14.919Z,12.07
2019-02-24T07:09:43.867Z,12.73
2019-02-24T07:12:12.843Z,10.80
2019-02-24T07:14:41.460Z,12.20
2019-02-24T07:17:10.087Z,10.73
2019-02-24T07:19:38.703Z,10.87
2019-02-24T07:24:46.136Z,11.00
2019-02-24T07:27:15.112Z,13.37
2019-02-24T07:29:43.732Z,11.17
2019-02-24T07:32:12.654Z,13.27
2019-02-24T07:34:41.280Z,14.50
2019-02-24T07:37:12.968Z,12.60
2019-02-24T07:39:38.535Z,12.23
2019-02-24T07:42:07.495Z,10.60
2019-02-24T07:44:36.135Z,12.07
2019-02-24T07:49:43.275Z,11.57
2019-02-24T07:52:12.283Z,12.77
2019-02-24T07:54:41.257Z,14.67
2019-02-24T07:57:10.135Z,11.23
2019-02-24T07:59:39.135Z,10.23
2019-02-24T08:02:07.750Z,12.63
2019-02-24T08:04:36.380Z,12.10
2019-02-24T08:09:43.951Z,13.20
2019-02-24T08:12:12.579Z,13.23
2019-02-24T08:14:41.206Z,10.00
2019-02-24T08:17:09.820Z,9.03
2019-02-24T08:19:38.438Z,10.73
2019-02-24T08:22:07.048Z,9.23
2019-02-24T08:24:35.683Z,8.17
2019-02-24T08:29:43.138Z,10.30
2019-02-24T08:32:11.754Z,12.33
2019-02-24T08:34:40.384Z,9.37
2019-02-24T08:37:09.007Z,9.90
2019-02-24T08:39:37.643Z,10.37
2019-02-24T08:44:45.141Z,8.80
2019-02-24T08:47:13.781Z,6.57
2019-02-24T08:49:42.410Z,8.60
2019-02-24T08:52:11.044Z,6.23
2019-02-24T08:54:39.677Z,7.73
2019-02-24T08:59:47.487Z,7.60
2019-02-24T09:02:16.099Z,9.37
2019-02-24T09:04:44.727Z,8.10
2019-02-24T09:09:51.902Z,7.73
2019-02-24T09:12:20.522Z,7.60
2019-02-24T09:14:49.157Z,7.30
2019-02-24T09:17:17.775Z,8.17
2019-02-24T09:19:46.410Z,8.00
2019-02-24T09:22:15.035Z,5.90
2019-02-24T09:24:43.658Z,8.40
2019-02-24T09:27:12.637Z,7.43
2019-02-24T09:29:41.630Z,7.83
2019-02-24T09:32:10.240Z,7.00
2019-02-24T09:34:38.884Z,10.40
2019-02-24T09:39:46.042Z,12.90
2019-02-24T09:42:14.676Z,14.07
2019-02-24T09:44:43.664Z,13.07
2019-02-24T09:47:12.283Z,10.47
2019-02-24T09:49:40.927Z,11.27
2019-02-24T09:52:09.812Z,11.10
2019-02-24T09:54:38.464Z,11.17
2019-02-24T09:59:46.006Z,10.43
2019-02-24T10:02:14.998Z,9.40
2019-02-24T10:04:43.632Z,9.90
2019-02-24T10:07:12.261Z,10.27
2019-02-24T10:09:40.900Z,11.67
2019-02-24T10:12:09.515Z,9.47
2019-02-24T10:14:38.415Z,11.43
2019-02-24T10:19:45.607Z,10.57
2019-02-24T10:22:14.240Z,10.50
2019-02-24T10:24:42.864Z,9.70
2019-02-24T10:27:11.491Z,11.23
2019-02-24T10:29:40.459Z,8.97
2019-02-24T10:32:09.073Z,9.77
2019-02-24T10:34:37.719Z,9.13
2019-02-24T10:39:44.896Z,13.53
2019-02-24T10:42:13.518Z,11.60
2019-02-24T10:44:42.184Z,11.03
2019-02-24T10:47:10.818Z,9.77
2019-02-24T10:49:39.466Z,8.53
2019-02-24T10:52:08.428Z,8.40
2019-02-24T10:54:37.072Z,10.67
2019-02-24T10:59:44.523Z,11.43
2019-02-24T11:02:13.513Z,10.33
2019-02-24T11:04:42.182Z,9.70
2019-02-24T11:07:10.833Z,9.57
2019-02-24T11:09:39.478Z,8.50
2019-02-24T11:12:08.919Z,12.77
2019-02-24T11:14:37.031Z,8.67
2019-02-24T11:19:44.469Z,10.53
2019-02-24T11:22:13.111Z,8.90
2019-02-24T11:24:42.117Z,11.47
2019-02-24T11:27:10.749Z,10.23
2019-02-24T11:29:39.382Z,9.70
2019-02-24T11:32:08.386Z,10.43
2019-02-24T11:34:36.999Z,8.57
2019-02-24T11:39:44.225Z,8.20
2019-02-24T11:42:12.815Z,8.93
2019-02-24T11:44:41.473Z,10.23
2019-02-24T11:47:10.106Z,8.20
2019-02-24T11:49:38.755Z,8.97
2019-02-24T11:52:07.670Z,7.97
2019-02-24T11:54:36.309Z,10.53
2019-02-24T11:59:43.864Z,8.03
2019-02-24T12:02:12.477Z,8.13
2019-02-24T12:04:41.111Z,9.73
2019-02-24T12:07:09.745Z,8.07
2019-02-24T12:12:17.317Z,8.57
2019-02-24T12:14:45.971Z,10.03
2019-02-24T12:17:14.875Z,8.40
2019-02-24T12:19:43.532Z,9.57
2019-02-24T12:22:12.162Z,8.20
2019-02-24T12:24:41.143Z,9.13
2019-02-24T12:27:09.754Z,10.60
2019-02-24T12:29:38.390Z,8.73
2019-02-24T12:32:07.067Z,8.43
2019-02-24T12:34:35.986Z,9.77
2019-02-24T12:39:43.969Z,8.73
2019-02-24T12:42:12.895Z,8.63
2019-02-24T12:44:41.530Z,9.60
2019-02-24T12:47:10.465Z,8.53
2019-02-24T12:49:39.459Z,10.43
2019-02-24T12:52:08.448Z,11.87
2019-02-24T12:54:37.440Z,9.20
2019-02-24T12:57:06.062Z,8.80
2019-02-24T12:59:35.010Z,9.03
2019-02-24T13:04:42.188Z,8.70
2019-02-24T13:07:10.846Z,7.73
2019-02-24T13:09:39.477Z,8.00
2019-02-24T13:14:46.986Z,5.60
2019-02-24T13:17:15.622Z,7.07
2019-02-24T13:19:44.559Z,9.53
2019-02-24T13:22:13.552Z,5.80
2019-02-24T13:24:42.596Z,7.93
2019-02-24T13:27:11.225Z,9.87
2019-02-24T13:29:39.867Z,6.57
2019-02-24T13:34:47.043Z,6.57
2019-02-24T13:37:15.752Z,6.40
2019-02-24T13:39:44.401Z,6.60
2019-02-24T13:42:13.044Z,10.03
2019-02-24T13:44:42.075Z,6.43
2019-02-24T13:47:11.034Z,6.57
2019-02-24T13:49:39.750Z,6.70
2019-02-24T13:54:47.233Z,4.67
2019-02-24T13:57:15.869Z,4.20
2019-02-24T13:59:44.474Z,4.23
2019-02-24T14:02:13.108Z,6.07
2019-02-24T14:04:42.066Z,5.00
2019-02-24T14:07:10.688Z,7.13
2019-02-24T14:09:39.576Z,3.07
2019-02-24T14:12:08.207Z,4.07
2019-02-24T14:14:37.111Z,4.13
2019-02-24T14:19:44.299Z,5.70
2019-02-24T14:22:12.943Z,4.30
2019-02-24T14:24:41.875Z,3.80
2019-02-24T14:29:49.793Z,5.13
2019-02-24T14:32:18.429Z,4.30
2019-02-24T14:34:47.052Z,3.23
2019-02-24T14:37:15.671Z,3.43
2019-02-24T14:39:44.291Z,4.67
2019-02-24T14:42:12.910Z,2.83
2019-02-24T14:44:41.541Z,4.40
2019-02-24T14:47:10.481Z,3.13
2019-02-24T14:49:39.369Z,3.67
2019-02-24T14:54:46.597Z,4.90
2019-02-24T14:57:15.183Z,4.50
2019-02-24T14:59:44.137Z,4.07
2019-02-24T15:02:12.770Z,5.47
2019-02-24T15:04:41.713Z,4.80
2019-02-24T15:07:10.706Z,5.40
2019-02-24T15:09:39.339Z,4.80
2019-02-24T15:12:07.968Z,3.47
2019-02-24T15:14:36.597Z,5.13
2019-02-24T15:17:05.223Z,5.93
2019-02-24T15:19:33.866Z,4.90
2019-02-24T15:22:02.810Z,4.00
2019-02-24T15:24:31.408Z,3.43
2019-02-24T15:27:00.042Z,4.80
2019-02-24T15:29:28.663Z,4.13
2019-02-24T15:31:57.287Z,4.27
2019-02-24T15:34:25.897Z,4.23
2019-02-24T15:36:54.910Z,4.57
2019-02-24T15:39:23.525Z,4.67
2019-02-24T15:41:52.183Z,5.23
2019-02-24T15:44:20.879Z,3.83
2019-02-24T15:46:49.514Z,4.67
2019-02-24T15:49:18.433Z,6.67
2019-02-24T15:51:47.417Z,3.47
2019-02-24T15:54:16.048Z,3.63
2019-02-24T15:56:45.000Z,2.63
2019-02-24T15:59:13.620Z,3.80
2019-02-24T16:01:42.257Z,4.00
2019-02-24T16:04:11.249Z,3.37
2019-02-24T16:06:39.899Z,4.53
2019-02-24T16:09:08.526Z,3.50
2019-02-24T16:11:37.147Z,5.07
2019-02-24T16:14:05.808Z,5.40
2019-02-24T16:16:34.777Z,6.33
2019-02-24T16:19:03.759Z,7.43
2019-02-24T16:21:32.385Z,6.40
2019-02-24T16:24:01.372Z,6.70
2019-02-24T16:26:30.141Z,8.60
2019-02-24T16:28:58.762Z,6.00
2019-02-24T16:31:27.697Z,7.03
2019-02-24T16:33:56.332Z,5.17
2019-02-24T16:36:25.011Z,4.80
2019-02-24T16:38:53.983Z,6.07
2019-02-24T16:41:22.618Z,4.37
2019-02-24T16:43:51.535Z,6.10
2019-02-24T16:46:20.161Z,3.80
2019-02-24T16:48:48.825Z,4.73
2019-02-24T16:51:17.486Z,5.13
2019-02-24T16:53:46.251Z,5.20
2019-02-24T16:56:15.164Z,4.83
2019-02-24T16:58:44.144Z,4.00
2019-02-24T17:01:13.146Z,7.00
2019-02-24T17:03:41.781Z,9.33
2019-02-24T17:06:10.717Z,15.77
2019-02-24T17:08:39.340Z,18.30
2019-02-24T17:11:07.975Z,21.97
2019-02-24T17:13:36.588Z,16.13
2019-02-24T17:16:05.570Z,13.97
2019-02-24T17:18:34.197Z,13.50
2019-02-24T17:21:03.077Z,13.07
2019-02-24T17:23:31.730Z,9.53
2019-02-24T17:26:00.366Z,9.23
2019-02-24T17:28:29.038Z,8.10
2019-02-24T17:30:57.662Z,6.67
2019-02-24T17:33:29.991Z,5.83
2019-02-24T17:35:54.914Z,4.70
2019-02-24T17:38:23.564Z,5.97
2019-02-24T17:40:52.197Z,6.83
2019-02-24T17:43:21.180Z,7.00
2019-02-24T17:45:50.167Z,5.73
2019-02-24T17:48:19.795Z,7.27
2019-02-24T17:50:47.452Z,8.03
2019-02-24T17:53:16.090Z,7.07
2019-02-24T17:55:45.002Z,4.27
2019-02-24T17:58:13.665Z,8.03
2019-02-24T18:00:42.685Z,5.20
2019-02-24T18:05:50.491Z,7.27
2019-02-24T18:08:27.895Z,4.53
2019-02-24T18:10:47.780Z,4.50
2019-02-24T18:13:16.416Z,6.27
2019-02-24T18:15:45.057Z,3.47
2019-02-24T18:18:13.697Z,8.07
2019-02-24T18:20:42.318Z,4.87
2019-02-24T18:25:49.673Z,4.50
2019-02-24T18:28:18.325Z,3.60
2019-02-24T18:30:46.959Z,2.30
2019-02-24T18:33:15.613Z,2.20
2019-02-24T18:35:44.531Z,1.73
2019-02-24T18:38:13.182Z,1.97
2019-02-24T18:40:41.827Z,3.07
2019-02-24T18:43:10.786Z,2.20
2019-02-24T18:45:39.785Z,2.57
2019-02-24T18:48:08.434Z,2.87
2019-02-24T18:50:37.075Z,6.13
2019-02-24T18:53:06.465Z,3.77
2019-02-24T18:55:34.386Z,4.03
2019-02-24T19:00:41.916Z,4.40
2019-02-24T19:03:10.566Z,2.60
2019-02-24T19:05:39.188Z,2.57
2019-02-24T19:08:08.222Z,4.03
2019-02-24T19:10:36.855Z,3.80
2019-02-24T19:13:05.475Z,3.67
2019-02-24T19:15:34.100Z,4.60
2019-02-24T19:18:02.731Z,2.73
2019-02-24T19:20:31.365Z,4.13
2019-02-24T19:22:59.997Z,1.80
2019-02-24T19:25:28.632Z,1.60
2019-02-24T19:27:57.532Z,2.10
2019-02-24T19:30:26.151Z,2.10
2019-02-24T19:32:54.782Z,2.43
2019-02-24T19:35:23.393Z,2.90
2019-02-24T19:37:52.017Z,2.40
2019-02-24T19:40:20.648Z,2.33
2019-02-24T19:42:49.266Z,2.40
2019-02-24T19:48:03.089Z,1.90
2019-02-24T19:50:31.714Z,2.73
2019-02-24T19:53:00.595Z,2.00
2019-02-24T19:55:29.215Z,3.00
2019-02-24T19:57:57.843Z,2.63
2019-02-24T20:00:26.477Z,3.33
2019-02-24T20:02:55.098Z,1.37
2019-02-24T20:05:24.088Z,2.73
2019-02-24T20:07:52.722Z,7.37
2019-02-24T20:10:21.357Z,5.67
2019-02-24T20:12:49.978Z,3.53
2019-02-24T20:15:18.629Z,2.07
2019-02-24T20:17:47.261Z,1.60
2019-02-24T20:20:15.900Z,1.83
2019-02-24T20:22:44.530Z,1.23
2019-02-24T20:25:19.193Z,1.20
2019-02-24T20:30:29.094Z,5.20
2019-02-24T20:32:57.714Z,2.47
2019-02-24T20:35:26.336Z,3.10
2019-02-24T20:37:54.959Z,3.53
2019-02-24T20:40:23.607Z,4.07
2019-02-24T20:42:52.222Z,3.17
2019-02-24T20:47:59.764Z,2.67
2019-02-24T20:50:28.402Z,4.53
2019-02-24T20:52:57.024Z,3.73
2019-02-24T20:55:25.669Z,3.53
2019-02-24T20:57:54.288Z,2.67
2019-02-24T21:03:05.020Z,4.83
2019-02-24T21:05:33.652Z,2.70
2019-02-24T21:08:02.554Z,3.80
2019-02-24T21:10:31.547Z,3.77
2019-02-24T21:13:00.180Z,7.97
2019-02-24T21:15:28.806Z,9.73
2019-02-24T21:17:57.447Z,9.30
2019-02-24T21:20:29.449Z,8.40
2019-02-24T21:22:58.070Z,5.80
2019-02-24T21:25:26.709Z,5.20
2019-02-24T21:27:55.330Z,8.03
2019-02-24T21:30:23.965Z,6.37
2019-02-24T21:32:52.594Z,5.17
2019-02-24T21:35:21.243Z,7.57
2019-02-24T21:37:49.861Z,4.93
2019-02-24T21:40:18.503Z,6.83
2019-02-24T21:42:47.494Z,5.10
2019-02-24T21:45:19.149Z,3.20
2019-02-24T21:47:47.764Z,5.87
2019-02-24T21:50:16.723Z,5.63
2019-02-24T21:52:45.349Z,4.93
2019-02-24T21:55:13.981Z,4.20
2019-02-24T21:57:42.606Z,5.40
2019-02-24T22:00:20.418Z,5.63
2019-02-24T22:02:49.368Z,4.20
2019-02-24T22:05:18.083Z,4.63
2019-02-24T22:07:47.046Z,3.73
2019-02-24T22:10:15.719Z,6.77
2019-02-24T22:12:44.349Z,4.63
2019-02-24T22:15:19.048Z,7.90
2019-02-24T22:17:47.695Z,7.93
2019-02-24T22:20:16.316Z,8.60
2019-02-24T22:22:44.955Z,15.70
2019-02-24T22:25:13.868Z,17.73
2019-02-24T22:27:42.861Z,13.30
2019-02-24T22:32:50.064Z,8.17
2019-02-24T22:35:19.080Z,6.23
2019-02-24T22:37:47.689Z,6.70
2019-02-24T22:40:16.929Z,5.63
2019-02-24T22:42:45.306Z,6.03
2019-02-24T22:47:55.600Z,5.77
2019-02-24T22:50:24.239Z,6.63
2019-02-24T22:52:53.154Z,6.07
2019-02-24T22:55:21.783Z,7.03
2019-02-24T22:57:50.395Z,8.40
2019-02-24T23:00:40.738Z,6.80
2019-02-24T23:03:09.371Z,5.23
2019-02-24T23:05:37.991Z,7.53
2019-02-24T23:08:06.607Z,9.97
2019-02-24T23:10:35.239Z,9.53
2019-02-24T23:13:03.888Z,10.27
2019-02-24T23:15:32.806Z,7.43
2019-02-24T23:18:01.435Z,6.37
2019-02-24T23:20:30.118Z,9.03
2019-02-24T23:22:59.071Z,7.33
2019-02-24T23:25:27.701Z,5.63
2019-02-24T23:27:56.642Z,5.40
2019-02-24T23:30:25.629Z,5.53
2019-02-24T23:32:54.255Z,5.37
2019-02-24T23:35:22.893Z,5.03
2019-02-24T23:37:51.505Z,7.63
2019-02-24T23:40:20.126Z,7.73
2019-02-24T23:42:48.746Z,6.93
2019-02-24T23:45:17.400Z,6.60
2019-02-24T23:47:46.108Z,5.37
2019-02-24T23:50:14.746Z,5.77
2019-02-24T23:52:43.374Z,5.33
2019-02-24T23:55:12.014Z,4.80
2019-02-24T23:57:40.951Z,7.53
